createdAt,value
2018-07-20T00:00:03.293Z,20.24
2018-07-20T00:01:03.225Z,20.11
2018-07-20T00:02:03.157Z,20.13
2018-07-20T00:03:03.084Z,20.10
2018-07-20T00:04:03.004Z,20.14
2018-07-20T00:05:02.942Z,20.04
2018-07-20T00:06:02.856Z,19.99
2018-07-20T00:07:02.784Z,20.00
2018-07-20T00:08:02.720Z,19.96
2018-07-20T00:09:02.654Z,19.85
2018-07-20T00:10:02.570Z,19.71
2018-07-20T00:11:02.497Z,19.62
2018-07-20T00:12:02.423Z,19.66
2018-07-20T00:13:02.351Z,19.63
2018-07-20T00:14:02.274Z,19.59
2018-07-20T00:15:02.198Z,19.63
2018-07-20T00:16:02.135Z,19.52
2018-07-20T00:17:02.059Z,19.56
2018-07-20T00:18:01.987Z,19.47
2018-07-20T00:19:01.911Z,19.56
2018-07-20T00:20:01.834Z,19.52
2018-07-20T00:21:01.759Z,19.45
2018-07-20T00:22:01.715Z,19.44
2018-07-20T00:23:01.614Z,19.37
2018-07-20T00:24:01.542Z,19.34
2018-07-20T00:25:01.480Z,19.29
2018-07-20T00:26:01.398Z,19.31
2018-07-20T00:27:01.324Z,19.26
2018-07-20T00:28:01.260Z,19.30
2018-07-20T00:29:01.173Z,19.34
2018-07-20T00:30:01.103Z,19.27
2018-07-20T00:31:01.029Z,19.27
2018-07-20T00:32:00.952Z,19.33
2018-07-20T00:33:00.882Z,19.21
2018-07-20T00:34:00.818Z,19.31
2018-07-20T00:35:00.733Z,19.30
2018-07-20T00:36:00.662Z,19.33
2018-07-20T00:37:00.587Z,19.29
2018-07-20T00:38:00.514Z,19.36
2018-07-20T00:39:00.453Z,19.29
2018-07-20T00:40:00.371Z,19.12
2018-07-20T00:41:00.293Z,19.16
2018-07-20T00:42:00.217Z,19.11
2018-07-20T00:43:00.147Z,19.07
2018-07-20T00:44:00.079Z,19.04
2018-07-20T00:44:59.999Z,19.08
2018-07-20T00:45:59.922Z,19.07
2018-07-20T00:46:59.846Z,19.07
2018-07-20T00:47:59.778Z,19.02
2018-07-20T00:48:59.724Z,19.07
2018-07-20T00:49:59.634Z,19.04
2018-07-20T00:50:59.553Z,18.95
2018-07-20T00:51:59.478Z,18.95
2018-07-20T00:52:59.412Z,18.90
2018-07-20T00:53:59.336Z,18.86
2018-07-20T00:54:59.258Z,18.83
2018-07-20T00:55:59.184Z,18.77
2018-07-20T00:56:59.110Z,18.80
2018-07-20T00:57:59.036Z,18.80
2018-07-20T00:58:58.980Z,18.83
2018-07-20T00:59:58.890Z,18.88
2018-07-20T01:00:58.820Z,18.86
2018-07-20T01:01:58.750Z,18.81
2018-07-20T01:02:58.674Z,18.93
2018-07-20T01:03:58.601Z,18.83
2018-07-20T01:04:58.533Z,18.84
2018-07-20T01:05:58.458Z,18.83
2018-07-20T01:06:58.374Z,18.73
2018-07-20T01:07:58.301Z,18.83
2018-07-20T01:08:58.266Z,18.65
2018-07-20T01:09:58.153Z,18.66
2018-07-20T01:10:58.080Z,18.66
2018-07-20T01:11:58.003Z,18.68
2018-07-20T01:12:57.935Z,18.70
2018-07-20T01:13:57.859Z,18.60
2018-07-20T01:14:57.779Z,18.62
2018-07-20T01:15:57.711Z,18.52
2018-07-20T01:16:57.632Z,18.50
2018-07-20T01:17:57.560Z,18.55
2018-07-20T01:18:57.490Z,18.50
2018-07-20T01:19:57.418Z,18.56
2018-07-20T01:20:57.336Z,18.56
2018-07-20T01:21:57.274Z,18.53
2018-07-20T01:22:57.188Z,18.53
2018-07-20T01:23:57.118Z,18.52
2018-07-20T01:24:57.046Z,18.52
2018-07-20T01:25:56.971Z,18.63
2018-07-20T01:26:56.890Z,18.62
2018-07-20T01:27:56.835Z,18.53
2018-07-20T01:28:56.753Z,18.68
2018-07-20T01:29:56.670Z,18.63
2018-07-20T01:30:56.602Z,18.66
2018-07-20T01:31:56.522Z,18.71
2018-07-20T01:32:56.455Z,18.65
2018-07-20T01:33:56.382Z,18.68
2018-07-20T01:34:56.297Z,18.65
2018-07-20T01:35:56.243Z,18.62
2018-07-20T01:36:56.154Z,18.71
2018-07-20T01:37:56.082Z,18.62
2018-07-20T01:38:56.010Z,18.70
2018-07-20T01:39:55.932Z,18.66
2018-07-20T01:40:55.856Z,18.66
2018-07-20T01:41:55.780Z,18.81
2018-07-20T01:42:55.706Z,18.78
2018-07-20T01:43:55.636Z,18.86
2018-07-20T01:44:55.566Z,18.78
2018-07-20T01:45:55.488Z,18.84
2018-07-20T01:46:55.415Z,18.77
2018-07-20T01:47:55.341Z,18.86
2018-07-20T01:48:55.269Z,18.75
2018-07-20T01:49:55.194Z,18.83
2018-07-20T01:50:55.113Z,18.75
2018-07-20T01:51:55.049Z,18.77
2018-07-20T01:52:54.967Z,18.81
2018-07-20T01:53:54.903Z,18.73
2018-07-20T01:54:54.833Z,18.71
2018-07-20T01:55:54.743Z,18.83
2018-07-20T01:56:54.671Z,18.73
2018-07-20T01:57:54.605Z,18.71
2018-07-20T01:58:54.528Z,18.81
2018-07-20T01:59:54.451Z,18.68
2018-07-20T02:00:54.377Z,18.83
2018-07-20T02:01:54.305Z,18.80
2018-07-20T02:02:54.225Z,18.80
2018-07-20T02:03:54.164Z,18.71
2018-07-20T02:04:54.082Z,18.86
2018-07-20T02:05:54.032Z,18.75
2018-07-20T02:06:53.937Z,18.86
2018-07-20T02:07:53.858Z,18.77
2018-07-20T02:08:53.792Z,18.71
2018-07-20T02:09:53.716Z,18.78
2018-07-20T02:10:53.633Z,18.80
2018-07-20T02:11:53.559Z,18.80
2018-07-20T02:12:53.487Z,18.73
2018-07-20T02:13:53.414Z,18.83
2018-07-20T02:14:53.340Z,18.65
2018-07-20T02:15:53.277Z,18.66
2018-07-20T02:16:53.200Z,18.71
2018-07-20T02:17:53.115Z,18.68
2018-07-20T02:18:53.048Z,18.68
2018-07-20T02:19:52.966Z,18.63
2018-07-20T02:20:52.894Z,18.68
2018-07-20T02:21:52.826Z,18.62
2018-07-20T02:22:52.745Z,18.63
2018-07-20T02:23:52.677Z,18.60
2018-07-20T02:24:52.597Z,18.63
2018-07-20T02:25:52.527Z,18.65
2018-07-20T02:26:52.446Z,18.55
2018-07-20T02:27:52.381Z,18.62
2018-07-20T02:28:52.305Z,18.62
2018-07-20T02:29:52.232Z,18.59
2018-07-20T02:30:52.150Z,18.63
2018-07-20T02:31:52.075Z,18.59
2018-07-20T02:32:52.007Z,18.59
2018-07-20T02:33:51.945Z,18.58
2018-07-20T02:34:51.854Z,18.56
2018-07-20T02:35:51.788Z,18.50
2018-07-20T02:36:51.717Z,18.38
2018-07-20T02:37:51.634Z,18.44
2018-07-20T02:38:51.564Z,18.41
2018-07-20T02:39:51.483Z,18.28
2018-07-20T02:40:51.416Z,18.29
2018-07-20T02:41:51.335Z,18.34
2018-07-20T02:42:51.275Z,18.34
2018-07-20T02:43:51.188Z,18.25
2018-07-20T02:44:51.145Z,18.28
2018-07-20T02:45:51.041Z,18.40
2018-07-20T02:46:50.968Z,18.40
2018-07-20T02:47:50.888Z,18.41
2018-07-20T02:48:50.833Z,18.34
2018-07-20T02:49:50.745Z,18.37
2018-07-20T02:50:50.667Z,18.31
2018-07-20T02:51:50.592Z,18.28
2018-07-20T02:52:50.532Z,18.28
2018-07-20T02:53:50.454Z,18.15
2018-07-20T02:54:50.371Z,18.10
2018-07-20T02:55:50.293Z,18.08
2018-07-20T02:56:50.227Z,18.19
2018-07-20T02:57:50.145Z,18.19
2018-07-20T02:58:50.082Z,18.07
2018-07-20T02:59:49.996Z,18.13
2018-07-20T03:00:49.928Z,18.07
2018-07-20T03:01:49.859Z,18.11
2018-07-20T03:02:49.777Z,18.15
2018-07-20T03:03:49.705Z,18.19
2018-07-20T03:04:49.636Z,18.23
2018-07-20T03:05:49.564Z,18.22
2018-07-20T03:06:49.476Z,18.16
2018-07-20T03:07:49.408Z,18.08
2018-07-20T03:08:49.339Z,18.18
2018-07-20T03:09:49.252Z,18.00
2018-07-20T03:10:49.185Z,18.07
2018-07-20T03:11:49.103Z,18.01
2018-07-20T03:12:49.030Z,18.05
2018-07-20T03:13:48.964Z,18.05
2018-07-20T03:14:48.880Z,18.08
2018-07-20T03:15:48.814Z,17.98
2018-07-20T03:16:48.735Z,17.98
2018-07-20T03:17:48.663Z,18.00
2018-07-20T03:18:48.584Z,17.92
2018-07-20T03:19:48.507Z,18.00
2018-07-20T03:20:48.443Z,17.90
2018-07-20T03:21:48.367Z,17.94
2018-07-20T03:22:48.288Z,17.97
2018-07-20T03:23:48.219Z,17.95
2018-07-20T03:24:48.135Z,17.90
2018-07-20T03:25:48.065Z,17.90
2018-07-20T03:26:47.985Z,17.98
2018-07-20T03:27:47.915Z,17.86
2018-07-20T03:28:48.374Z,17.86
2018-07-20T03:29:47.761Z,17.87
2018-07-20T03:30:47.691Z,17.82
2018-07-20T03:31:47.613Z,17.85
2018-07-20T03:32:47.620Z,17.85
2018-07-20T03:33:47.466Z,17.85
2018-07-20T03:34:47.392Z,17.85
2018-07-20T03:35:47.314Z,17.85
2018-07-20T03:36:47.244Z,17.87
2018-07-20T03:37:47.168Z,17.80
2018-07-20T03:38:47.097Z,17.86
2018-07-20T03:39:47.021Z,17.82
2018-07-20T03:40:46.948Z,17.89
2018-07-20T03:41:46.867Z,17.82
2018-07-20T03:42:46.795Z,17.85
2018-07-20T03:43:46.721Z,17.86
2018-07-20T03:44:46.648Z,17.87
2018-07-20T03:45:46.569Z,17.85
2018-07-20T03:46:46.499Z,17.86
2018-07-20T03:47:46.421Z,17.82
2018-07-20T03:48:46.348Z,17.82
2018-07-20T03:49:46.270Z,17.86
2018-07-20T03:50:46.213Z,17.85
2018-07-20T03:51:46.125Z,17.86
2018-07-20T03:52:46.045Z,17.85
2018-07-20T03:53:45.974Z,17.80
2018-07-20T03:54:45.899Z,17.82
2018-07-20T03:55:45.827Z,17.89
2018-07-20T03:56:45.750Z,17.85
2018-07-20T03:57:45.675Z,17.79
2018-07-20T03:58:45.599Z,17.79
2018-07-20T03:59:45.523Z,17.78
2018-07-20T04:00:45.452Z,17.80
2018-07-20T04:01:45.377Z,17.59
2018-07-20T04:02:45.298Z,17.60
2018-07-20T04:03:45.223Z,17.60
2018-07-20T04:04:45.150Z,17.52
2018-07-20T04:05:45.081Z,17.49
2018-07-20T04:06:45.001Z,17.56
2018-07-20T04:07:44.935Z,17.57
2018-07-20T04:08:44.851Z,17.63
2018-07-20T04:09:44.780Z,17.54
2018-07-20T04:10:44.703Z,17.52
2018-07-20T04:11:44.626Z,17.59
2018-07-20T04:12:44.551Z,17.57
2018-07-20T04:13:44.491Z,17.56
2018-07-20T04:14:44.403Z,17.52
2018-07-20T04:15:44.332Z,17.57
2018-07-20T04:16:44.250Z,17.54
2018-07-20T04:17:44.181Z,17.57
2018-07-20T04:18:44.103Z,17.51
2018-07-20T04:19:44.038Z,17.54
2018-07-20T04:20:43.955Z,17.59
2018-07-20T04:21:43.881Z,17.64
2018-07-20T04:22:43.807Z,17.63
2018-07-20T04:23:43.728Z,17.70
2018-07-20T04:24:43.652Z,17.65
2018-07-20T04:25:43.593Z,17.78
2018-07-20T04:26:43.506Z,17.72
2018-07-20T04:27:43.428Z,17.70
2018-07-20T04:28:43.353Z,17.74
2018-07-20T04:29:43.285Z,17.80
2018-07-20T04:30:43.205Z,17.80
2018-07-20T04:31:43.135Z,17.85
2018-07-20T04:32:43.057Z,17.78
2018-07-20T04:33:42.979Z,17.85
2018-07-20T04:34:42.907Z,17.86
2018-07-20T04:35:42.837Z,17.92
2018-07-20T04:36:42.760Z,17.90
2018-07-20T04:37:42.703Z,18.00
2018-07-20T04:38:42.605Z,17.95
2018-07-20T04:39:42.536Z,17.92
2018-07-20T04:40:42.457Z,18.03
2018-07-20T04:41:42.394Z,18.07
2018-07-20T04:42:42.313Z,18.03
2018-07-20T04:43:42.304Z,18.10
2018-07-20T04:44:42.161Z,18.08
2018-07-20T04:45:42.099Z,18.10
2018-07-20T04:46:42.010Z,18.20
2018-07-20T04:47:41.941Z,18.26
2018-07-20T04:48:41.889Z,18.20
2018-07-20T04:49:41.826Z,18.29
2018-07-20T04:50:41.718Z,18.26
2018-07-20T04:51:41.639Z,18.29
2018-07-20T04:52:41.570Z,18.31
2018-07-20T04:53:41.495Z,18.25
2018-07-20T04:54:41.420Z,18.28
2018-07-20T04:55:41.364Z,18.23
2018-07-20T04:56:41.271Z,18.18
2018-07-20T04:57:41.198Z,18.35
2018-07-20T04:58:41.154Z,18.25
2018-07-20T04:59:41.043Z,18.28
2018-07-20T05:00:40.969Z,18.34
2018-07-20T05:01:40.899Z,18.31
2018-07-20T05:02:40.834Z,18.34
2018-07-20T05:03:40.817Z,18.29
2018-07-20T05:04:40.671Z,18.25
2018-07-20T05:05:40.603Z,18.34
2018-07-20T05:06:40.529Z,18.41
2018-07-20T05:07:40.449Z,18.38
2018-07-20T05:08:40.400Z,18.38
2018-07-20T05:09:40.303Z,18.38
2018-07-20T05:10:40.229Z,18.43
2018-07-20T05:11:40.152Z,18.53
2018-07-20T05:12:40.078Z,18.50
2018-07-20T05:13:40.010Z,18.55
2018-07-20T05:14:39.935Z,18.56
2018-07-20T05:15:39.856Z,18.56
2018-07-20T05:16:39.781Z,18.66
2018-07-20T05:17:39.705Z,18.65
2018-07-20T05:18:39.637Z,18.68
2018-07-20T05:19:39.566Z,18.71
2018-07-20T05:20:39.508Z,18.68
2018-07-20T05:21:39.424Z,18.68
2018-07-20T05:22:39.335Z,18.80
2018-07-20T05:23:39.271Z,18.75
2018-07-20T05:24:39.189Z,18.81
2018-07-20T05:25:39.120Z,18.77
2018-07-20T05:26:39.054Z,18.84
2018-07-20T05:27:38.991Z,18.80
2018-07-20T05:28:38.894Z,18.92
2018-07-20T05:29:38.826Z,18.88
2018-07-20T05:30:38.744Z,18.89
2018-07-20T05:31:38.684Z,18.92
2018-07-20T05:32:38.787Z,18.96
2018-07-20T05:33:38.577Z,19.09
2018-07-20T05:34:38.502Z,19.08
2018-07-20T05:35:38.429Z,19.22
2018-07-20T05:36:38.377Z,19.16
2018-07-20T05:37:38.306Z,19.24
2018-07-20T05:38:38.208Z,19.30
2018-07-20T05:39:38.174Z,19.31
2018-07-20T05:40:38.066Z,19.33
2018-07-20T05:41:37.968Z,19.44
2018-07-20T05:42:37.944Z,19.45
2018-07-20T05:43:37.856Z,19.54
2018-07-20T05:44:37.776Z,19.58
2018-07-20T05:45:37.681Z,19.49
2018-07-20T05:46:37.612Z,19.58
2018-07-20T05:47:37.554Z,19.59
2018-07-20T05:48:37.479Z,19.67
2018-07-20T05:49:37.389Z,19.73
2018-07-20T05:50:37.319Z,19.85
2018-07-20T05:51:37.202Z,19.77
2018-07-20T05:52:37.132Z,19.86
2018-07-20T05:53:37.054Z,19.88
2018-07-20T05:54:36.976Z,19.86
2018-07-20T05:55:36.903Z,19.92
2018-07-20T05:56:36.843Z,19.92
2018-07-20T05:57:36.757Z,19.96
2018-07-20T05:58:36.688Z,20.00
2018-07-20T05:59:36.616Z,20.03
2018-07-20T06:00:36.541Z,20.09
2018-07-20T06:01:36.461Z,20.13
2018-07-20T06:02:36.396Z,20.10
2018-07-20T06:03:36.376Z,20.13
2018-07-20T06:04:36.258Z,20.22
2018-07-20T06:05:36.319Z,20.24
2018-07-20T06:06:36.106Z,20.22
2018-07-20T06:07:36.032Z,20.25
2018-07-20T06:08:35.968Z,20.32
2018-07-20T06:09:35.885Z,20.39
2018-07-20T06:10:35.810Z,20.32
2018-07-20T06:11:35.736Z,20.37
2018-07-20T06:12:35.660Z,20.26
2018-07-20T06:13:35.591Z,20.43
2018-07-20T06:14:35.525Z,20.51
2018-07-20T06:15:35.442Z,20.44
2018-07-20T06:16:35.372Z,20.56
2018-07-20T06:17:35.295Z,20.58
2018-07-20T06:18:35.222Z,20.58
2018-07-20T06:19:35.149Z,20.55
2018-07-20T06:20:35.083Z,20.72
2018-07-20T06:21:35.005Z,20.62
2018-07-20T06:22:34.932Z,20.66
2018-07-20T06:23:34.908Z,20.74
2018-07-20T06:24:34.790Z,20.77
2018-07-20T06:25:34.722Z,20.80
2018-07-20T06:26:34.650Z,20.78
2018-07-20T06:27:34.574Z,20.82
2018-07-20T06:28:34.501Z,20.90
2018-07-20T06:29:34.460Z,20.85
2018-07-20T06:30:34.364Z,20.84
2018-07-20T06:31:34.281Z,21.00
2018-07-20T06:32:34.215Z,20.95
2018-07-20T06:33:34.145Z,21.02
2018-07-20T06:34:34.063Z,21.02
2018-07-20T06:35:33.994Z,21.03
2018-07-20T06:36:33.919Z,21.07
2018-07-20T06:37:33.843Z,21.14
2018-07-20T06:38:33.773Z,21.07
2018-07-20T06:39:33.702Z,21.14
2018-07-20T06:40:33.630Z,21.14
2018-07-20T06:41:33.558Z,21.15
2018-07-20T06:42:33.486Z,21.22
2018-07-20T06:43:33.420Z,21.25
2018-07-20T06:44:33.351Z,21.29
2018-07-20T06:45:33.270Z,21.30
2018-07-20T06:46:33.198Z,21.35
2018-07-20T06:47:33.123Z,21.30
2018-07-20T06:48:33.052Z,21.48
2018-07-20T06:49:32.977Z,21.43
2018-07-20T06:50:32.919Z,21.50
2018-07-20T06:51:32.833Z,21.54
2018-07-20T06:52:32.759Z,21.54
2018-07-20T06:53:32.692Z,21.52
2018-07-20T06:54:32.618Z,21.51
2018-07-20T06:55:32.546Z,21.60
2018-07-20T06:56:32.474Z,21.64
2018-07-20T06:57:32.452Z,21.61
2018-07-20T06:58:32.385Z,21.70
2018-07-20T06:59:32.304Z,21.69
2018-07-20T07:00:32.264Z,21.67
2018-07-20T07:01:32.195Z,21.69
2018-07-20T07:02:32.118Z,21.76
2018-07-20T07:03:31.999Z,21.70
2018-07-20T07:04:31.988Z,21.85
2018-07-20T07:05:31.898Z,21.83
2018-07-20T07:06:31.821Z,21.98
2018-07-20T07:07:31.747Z,21.95
2018-07-20T07:08:31.675Z,21.96
2018-07-20T07:09:31.678Z,22.02
2018-07-20T07:10:31.554Z,22.06
2018-07-20T07:11:31.464Z,22.13
2018-07-20T07:12:31.390Z,22.11
2018-07-20T07:13:31.247Z,22.14
2018-07-20T07:14:31.183Z,22.18
2018-07-20T07:15:31.110Z,22.17
2018-07-20T07:16:31.043Z,22.22
2018-07-20T07:17:30.962Z,22.30
2018-07-20T07:18:30.896Z,22.33
2018-07-20T07:19:30.825Z,22.36
2018-07-20T07:20:30.744Z,22.33
2018-07-20T07:21:30.682Z,22.43
2018-07-20T07:22:30.614Z,22.50
2018-07-20T07:23:30.537Z,22.45
2018-07-20T07:24:30.465Z,22.51
2018-07-20T07:25:30.395Z,22.48
2018-07-20T07:26:30.325Z,22.55
2018-07-20T07:27:30.249Z,22.60
2018-07-20T07:28:30.187Z,22.59
2018-07-20T07:29:30.113Z,22.66
2018-07-20T07:30:30.035Z,22.70
2018-07-20T07:31:29.964Z,22.75
2018-07-20T07:32:29.892Z,22.70
2018-07-20T07:33:29.831Z,22.78
2018-07-20T07:34:29.788Z,22.75
2018-07-20T07:35:29.763Z,22.80
2018-07-20T07:36:30.676Z,22.83
2018-07-20T07:37:29.593Z,22.81
2018-07-20T07:38:29.520Z,22.85
2018-07-20T07:39:29.460Z,22.91
2018-07-20T07:40:29.386Z,22.93
2018-07-20T07:41:29.320Z,22.94
2018-07-20T07:42:29.242Z,23.03
2018-07-20T07:43:29.190Z,23.03
2018-07-20T07:44:29.093Z,23.10
2018-07-20T07:45:29.052Z,23.09
2018-07-20T07:46:28.958Z,23.13
2018-07-20T07:47:28.860Z,23.17
2018-07-20T07:48:28.824Z,23.17
2018-07-20T07:49:28.757Z,23.20
2018-07-20T07:50:28.682Z,23.36
2018-07-20T07:51:29.605Z,23.41
2018-07-20T07:52:28.549Z,23.41
2018-07-20T07:53:28.452Z,23.32
2018-07-20T07:54:28.410Z,23.39
2018-07-20T07:55:28.312Z,23.48
2018-07-20T07:57:28.310Z,23.54
2018-07-20T07:58:28.175Z,23.51
2018-07-20T07:59:28.012Z,23.56
2018-07-20T08:00:27.958Z,23.59
2018-07-20T08:01:27.915Z,23.58
2018-07-20T08:02:27.812Z,23.63
2018-07-20T08:03:27.757Z,23.65
2018-07-20T08:04:27.645Z,23.65
2018-07-20T08:05:27.623Z,23.69
2018-07-20T08:06:27.532Z,23.83
2018-07-20T08:07:27.462Z,23.71
2018-07-20T08:08:27.384Z,23.84
2018-07-20T08:09:27.396Z,23.80
2018-07-20T08:10:28.254Z,23.87
2018-07-20T08:11:27.189Z,23.86
2018-07-20T08:12:27.125Z,23.91
2018-07-20T08:13:28.041Z,23.96
2018-07-20T08:14:26.933Z,24.02
2018-07-20T08:15:26.908Z,23.98
2018-07-20T08:16:26.833Z,23.98
2018-07-20T08:17:26.706Z,24.01
2018-07-20T08:18:26.717Z,23.99
2018-07-20T08:19:26.625Z,24.02
2018-07-20T08:20:26.485Z,24.11
2018-07-20T08:21:26.417Z,24.21
2018-07-20T08:22:26.364Z,24.24
2018-07-20T08:23:26.273Z,24.24
2018-07-20T08:24:26.204Z,24.28
2018-07-20T08:25:26.143Z,24.42
2018-07-20T08:26:26.069Z,24.32
2018-07-20T08:27:25.997Z,24.45
2018-07-20T08:28:25.942Z,24.42
2018-07-20T08:29:25.899Z,24.50
2018-07-20T08:30:25.801Z,24.51
2018-07-20T08:31:25.712Z,24.53
2018-07-20T08:32:25.644Z,24.54
2018-07-20T08:33:25.581Z,24.57
2018-07-20T08:34:25.502Z,24.57
2018-07-20T08:35:25.432Z,24.55
2018-07-20T08:36:25.369Z,24.65
2018-07-20T08:37:25.288Z,24.69
2018-07-20T08:38:25.227Z,24.76
2018-07-20T08:39:25.163Z,24.65
2018-07-20T08:40:25.081Z,24.65
2018-07-20T08:41:25.016Z,24.70
2018-07-20T08:42:24.941Z,24.69
2018-07-20T08:43:24.961Z,24.70
2018-07-20T08:44:24.852Z,24.88
2018-07-20T08:45:24.810Z,24.81
2018-07-20T08:46:24.748Z,24.93
2018-07-20T08:47:24.679Z,24.92
2018-07-20T08:48:24.580Z,25.04
2018-07-20T08:49:24.531Z,25.07
2018-07-20T08:50:24.442Z,24.98
2018-07-20T08:51:24.399Z,25.04
2018-07-20T08:52:24.292Z,25.18
2018-07-20T08:53:24.245Z,25.21
2018-07-20T08:54:24.167Z,25.25
2018-07-20T08:55:24.112Z,25.26
2018-07-20T08:56:24.021Z,25.29
2018-07-20T08:57:23.964Z,25.40
2018-07-20T08:58:23.831Z,25.35
2018-07-20T08:59:23.752Z,25.48
2018-07-20T09:00:23.686Z,25.32
2018-07-20T09:01:23.614Z,25.44
2018-07-20T09:02:23.542Z,25.48
2018-07-20T09:03:23.484Z,25.50
2018-07-20T09:04:23.403Z,25.54
2018-07-20T09:05:23.343Z,25.63
2018-07-20T09:06:23.280Z,25.63
2018-07-20T09:07:23.195Z,25.68
2018-07-20T09:08:23.125Z,25.78
2018-07-20T09:09:23.071Z,25.84
2018-07-20T09:10:22.987Z,25.85
2018-07-20T09:11:22.915Z,25.81
2018-07-20T09:12:22.850Z,25.96
2018-07-20T09:13:22.793Z,25.95
2018-07-20T09:14:22.709Z,25.98
2018-07-20T09:15:22.666Z,25.95
2018-07-20T09:16:22.570Z,26.06
2018-07-20T09:17:22.504Z,26.09
2018-07-20T09:18:22.436Z,26.10
2018-07-20T09:19:22.366Z,26.13
2018-07-20T09:20:22.319Z,26.02
2018-07-20T09:21:22.224Z,26.05
2018-07-20T09:22:22.213Z,26.10
2018-07-20T09:23:22.168Z,26.03
2018-07-20T09:24:22.076Z,26.15
2018-07-20T09:25:22.035Z,26.16
2018-07-20T09:26:21.928Z,26.18
2018-07-20T09:27:22.864Z,26.19
2018-07-20T09:28:21.850Z,26.25
2018-07-20T09:29:21.736Z,26.31
2018-07-20T09:30:21.657Z,26.26
2018-07-20T09:31:21.615Z,26.29
2018-07-20T09:32:21.541Z,26.26
2018-07-20T09:33:21.483Z,26.31
2018-07-20T09:34:21.393Z,26.28
2018-07-20T09:35:22.258Z,26.31
2018-07-20T09:36:21.189Z,26.34
2018-07-20T09:37:21.129Z,26.29
2018-07-20T09:38:21.057Z,26.33
2018-07-20T09:39:20.994Z,26.38
2018-07-20T09:40:20.920Z,26.43
2018-07-20T09:41:20.854Z,26.48
2018-07-20T09:42:20.777Z,26.58
2018-07-20T09:43:20.709Z,26.48
2018-07-20T09:44:20.696Z,26.56
2018-07-20T09:45:20.604Z,26.63
2018-07-20T09:46:20.503Z,26.71
2018-07-20T09:47:20.449Z,26.78
2018-07-20T09:48:20.370Z,26.71
2018-07-20T09:49:20.303Z,26.78
2018-07-20T09:50:20.227Z,26.75
2018-07-20T09:51:20.170Z,26.71
2018-07-20T09:52:20.100Z,26.81
2018-07-20T09:53:20.021Z,26.85
2018-07-20T09:54:19.959Z,26.90
2018-07-20T09:55:19.884Z,27.03
2018-07-20T09:56:19.818Z,27.14
2018-07-20T09:57:19.747Z,27.17
2018-07-20T09:58:19.707Z,27.18
2018-07-20T09:59:19.643Z,27.18
2018-07-20T10:00:19.548Z,27.25
2018-07-20T10:01:19.479Z,27.32
2018-07-20T10:02:19.410Z,27.30
2018-07-20T10:03:19.334Z,27.29
2018-07-20T10:04:19.279Z,27.27
2018-07-20T10:05:19.206Z,27.30
2018-07-20T10:06:19.138Z,27.40
2018-07-20T10:07:19.060Z,27.42
2018-07-20T10:08:19.003Z,27.37
2018-07-20T10:09:18.927Z,27.45
2018-07-20T10:10:18.870Z,27.58
2018-07-20T10:11:18.799Z,27.65
2018-07-20T10:12:18.725Z,27.65
2018-07-20T10:13:18.652Z,27.71
2018-07-20T10:14:18.588Z,27.83
2018-07-20T10:15:18.525Z,27.95
2018-07-20T10:16:18.460Z,27.96
2018-07-20T10:17:18.397Z,28.02
2018-07-20T10:18:18.327Z,28.05
2018-07-20T10:19:18.257Z,28.01
2018-07-20T10:20:18.190Z,28.10
2018-07-20T10:21:18.109Z,28.17
2018-07-20T10:22:18.057Z,28.15
2018-07-20T10:23:17.976Z,28.10
2018-07-20T10:24:17.922Z,28.10
2018-07-20T10:25:17.844Z,28.11
2018-07-20T10:26:17.774Z,28.17
2018-07-20T10:27:17.710Z,28.12
2018-07-20T10:28:17.639Z,28.12
2018-07-20T10:29:17.580Z,28.05
2018-07-20T10:30:17.519Z,28.00
2018-07-20T10:31:17.440Z,28.00
2018-07-20T10:32:17.375Z,28.02
2018-07-20T10:33:17.304Z,27.96
2018-07-20T10:34:17.238Z,27.92
2018-07-20T10:35:17.170Z,27.83
2018-07-20T10:36:17.107Z,27.83
2018-07-20T10:37:17.033Z,27.80
2018-07-20T10:38:16.961Z,27.83
2018-07-20T10:39:16.900Z,27.73
2018-07-20T10:40:16.831Z,27.78
2018-07-20T10:41:16.763Z,27.80
2018-07-20T10:42:16.707Z,27.85
2018-07-20T10:43:16.626Z,27.93
2018-07-20T10:44:16.617Z,27.98
2018-07-20T10:45:16.510Z,27.92
2018-07-20T10:46:16.466Z,27.87
2018-07-20T10:47:16.490Z,27.95
2018-07-20T10:48:16.311Z,27.98
2018-07-20T10:49:16.270Z,27.90
2018-07-20T10:50:16.190Z,27.89
2018-07-20T10:51:16.102Z,27.92
2018-07-20T10:52:16.062Z,27.87
2018-07-20T10:53:16.948Z,27.95
2018-07-20T10:54:15.975Z,28.05
2018-07-20T10:55:15.836Z,28.07
2018-07-20T10:56:15.801Z,28.08
2018-07-20T10:57:15.755Z,28.20
2018-07-20T10:58:15.713Z,28.26
2018-07-20T10:59:15.781Z,28.23
2018-07-20T11:00:15.503Z,28.35
2018-07-20T11:01:16.229Z,28.45
2018-07-20T11:02:15.439Z,28.49
2018-07-20T11:03:15.320Z,28.57
2018-07-20T11:04:15.275Z,28.59
2018-07-20T11:05:15.209Z,28.64
2018-07-20T11:06:15.160Z,28.62
2018-07-20T11:07:15.048Z,28.70
2018-07-20T11:08:15.001Z,28.69
2018-07-20T11:09:14.908Z,28.75
2018-07-20T11:10:15.558Z,28.91
2018-07-20T11:11:14.774Z,29.01
2018-07-20T11:12:14.713Z,29.01
2018-07-20T11:13:14.720Z,29.13
2018-07-20T11:14:14.621Z,29.24
2018-07-20T11:15:14.511Z,29.31
2018-07-20T11:16:14.409Z,29.39
2018-07-20T11:17:14.335Z,29.51
2018-07-20T11:18:14.271Z,29.57
2018-07-20T11:19:14.209Z,29.61
2018-07-20T11:20:14.149Z,29.76
2018-07-20T11:21:14.078Z,29.81
2018-07-20T11:22:14.000Z,29.97
2018-07-20T11:23:13.950Z,29.98
2018-07-20T11:24:13.868Z,30.23
2018-07-20T11:25:13.804Z,30.24
2018-07-20T11:26:13.742Z,30.34
2018-07-20T11:27:13.669Z,30.24
2018-07-20T11:28:13.602Z,30.37
2018-07-20T11:29:13.556Z,30.43
2018-07-20T11:30:13.469Z,30.53
2018-07-20T11:31:13.403Z,30.51
2018-07-20T11:32:13.420Z,30.53
2018-07-20T11:33:13.358Z,30.61
2018-07-20T11:34:13.215Z,30.62
2018-07-20T11:35:13.201Z,30.72
2018-07-20T11:36:13.097Z,30.77
2018-07-20T11:37:13.075Z,30.84
2018-07-20T11:38:12.949Z,31.00
2018-07-20T11:39:12.880Z,31.00
2018-07-20T11:40:12.827Z,30.99
2018-07-20T11:41:12.785Z,31.07
2018-07-20T11:42:12.679Z,31.24
2018-07-20T11:43:12.661Z,31.29
2018-07-20T11:44:12.586Z,31.28
2018-07-20T11:45:12.485Z,31.25
2018-07-20T11:46:12.412Z,31.27
2018-07-20T11:47:12.348Z,31.34
2018-07-20T11:48:12.289Z,31.42
2018-07-20T11:49:12.219Z,31.51
2018-07-20T11:50:12.157Z,31.52
2018-07-20T11:51:12.086Z,31.44
2018-07-20T11:52:12.023Z,31.28
2018-07-20T11:53:11.962Z,31.18
2018-07-20T11:54:11.898Z,31.09
2018-07-20T11:55:11.839Z,31.10
2018-07-20T11:56:11.763Z,31.00
2018-07-20T11:57:11.701Z,30.99
2018-07-20T11:58:11.633Z,31.06
2018-07-20T11:59:11.607Z,31.00
2018-07-20T12:00:11.507Z,30.81
2018-07-20T12:01:11.437Z,30.72
2018-07-20T12:02:11.375Z,30.72
2018-07-20T12:03:11.304Z,30.72
2018-07-20T12:04:11.243Z,30.73
2018-07-20T12:05:11.173Z,30.62
2018-07-20T12:06:11.106Z,30.65
2018-07-20T12:07:11.042Z,30.59
2018-07-20T12:08:10.974Z,30.55
2018-07-20T12:09:10.921Z,30.53
2018-07-20T12:10:10.853Z,30.47
2018-07-20T12:11:10.804Z,30.53
2018-07-20T12:12:10.716Z,30.43
2018-07-20T12:13:10.721Z,30.44
2018-07-20T12:14:10.747Z,30.40
2018-07-20T12:15:10.617Z,30.44
2018-07-20T12:16:10.503Z,30.32
2018-07-20T12:17:10.469Z,30.35
2018-07-20T12:18:10.399Z,30.32
2018-07-20T12:19:10.375Z,30.39
2018-07-20T12:20:10.280Z,30.39
2018-07-20T12:21:10.189Z,30.44
2018-07-20T12:22:10.115Z,30.34
2018-07-20T12:23:10.129Z,30.47
2018-07-20T12:24:09.987Z,30.47
2018-07-20T12:25:09.950Z,30.34
2018-07-20T12:26:09.858Z,30.32
2018-07-20T12:27:09.817Z,30.34
2018-07-20T12:28:09.773Z,30.35
2018-07-20T12:29:09.673Z,30.34
2018-07-20T12:30:09.617Z,30.31
2018-07-20T12:31:09.548Z,30.37
2018-07-20T12:32:10.187Z,30.39
2018-07-20T12:33:09.371Z,30.39
2018-07-20T12:34:09.266Z,30.47
2018-07-20T12:35:09.207Z,30.63
2018-07-20T12:36:09.139Z,30.73
2018-07-20T12:37:09.073Z,30.78
2018-07-20T12:38:09.008Z,31.05
2018-07-20T12:39:08.943Z,31.00
2018-07-20T12:40:08.876Z,31.00
2018-07-20T12:41:08.821Z,31.12
2018-07-20T12:42:08.752Z,31.21
2018-07-20T12:43:08.680Z,31.34
2018-07-20T12:44:08.622Z,31.29
2018-07-20T12:45:08.555Z,31.47
2018-07-20T12:46:08.484Z,31.51
2018-07-20T12:47:08.508Z,31.44
2018-07-20T12:48:08.438Z,31.51
2018-07-20T12:49:08.363Z,31.55
2018-07-20T12:50:08.400Z,31.51
2018-07-20T12:51:09.270Z,31.62
2018-07-20T12:52:08.164Z,31.77